sensor_id;sensor_type;location;lat;lon;timestamp;P1;durP1;ratioP1;P2;durP2;ratioP2
38399;SDS011;24180;42.676;23.320;2023-05-17T00:02:04;27.80;;;23.37;;
38399;SDS011;24180;42.676;23.320;2023-05-17T00:04:30;31.63;;;23.17;;
38399;SDS011;24180;42.676;23.320;2023-05-17T00:06:57;30.77;;;24.93;;
38399;SDS011;24180;42.676;23.320;2023-05-17T00:09:22;30.53;;;27.27;;
38399;SDS011;24180;42.676;23.320;2023-05-17T00:11:48;34.70;;;27.67;;
38399;SDS011;24180;42.676;23.320;2023-05-17T00:14:13;32.27;;;27.53;;
38399;SDS011;24180;42.676;23.320;2023-05-17T00:16:39;33.47;;;27.67;;
38399;SDS011;24180;42.676;23.320;2023-05-17T00:19:04;34.07;;;26.97;;
38399;SDS011;24180;42.676;23.320;2023-05-17T00:21:30;32.07;;;27.23;;
38399;SDS011;24180;42.676;23.320;2023-05-17T00:23:55;34.80;;;28.73;;
38399;SDS011;24180;42.676;23.320;2023-05-17T00:26:20;35.33;;;28.07;;
38399;SDS011;24180;42.676;23.320;2023-05-17T00:28:46;34.90;;;27.17;;
38399;SDS011;24180;42.676;23.320;2023-05-17T00:31:11;34.43;;;27.90;;
38399;SDS011;24180;42.676;23.320;2023-05-17T00:33:37;35.87;;;26.90;;
38399;SDS011;24180;42.676;23.320;2023-05-17T00:36:02;34.27;;;28.00;;
38399;SDS011;24180;42.676;23.320;2023-05-17T00:38:28;33.73;;;27.63;;
38399;SDS011;24180;42.676;23.320;2023-05-17T00:40:54;37.20;;;27.90;;
38399;SDS011;24180;42.676;23.320;2023-05-17T00:43:19;34.80;;;25.87;;
38399;SDS011;24180;42.676;23.320;2023-05-17T00:45:44;29.70;;;23.93;;
38399;SDS011;24180;42.676;23.320;2023-05-17T00:48:12;25.33;;;21.43;;
38399;SDS011;24180;42.676;23.320;2023-05-17T00:50:38;28.83;;;24.63;;
38399;SDS011;24180;42.676;23.320;2023-05-17T00:53:04;28.77;;;22.07;;
38399;SDS011;24180;42.676;23.320;2023-05-17T00:55:29;22.67;;;18.90;;
38399;SDS011;24180;42.676;23.320;2023-05-17T00:57:55;24.73;;;17.30;;
38399;SDS011;24180;42.676;23.320;2023-05-17T01:00:20;24.10;;;19.80;;
38399;SDS011;24180;42.676;23.320;2023-05-17T01:02:46;23.33;;;15.87;;
38399;SDS011;24180;42.676;23.320;2023-05-17T01:05:12;21.30;;;13.63;;
38399;SDS011;24180;42.676;23.320;2023-05-17T01:07:38;18.23;;;14.67;;
38399;SDS011;24180;42.676;23.320;2023-05-17T01:10:04;21.50;;;14.60;;
38399;SDS011;24180;42.676;23.320;2023-05-17T01:12:36;18.17;;;15.17;;
38399;SDS011;24180;42.676;23.320;2023-05-17T01:15:12;20.00;;;15.57;;
38399;SDS011;24180;42.676;23.320;2023-05-17T01:20:45;22.63;;;16.43;;
38399;SDS011;24180;42.676;23.320;2023-05-17T01:28:24;19.20;;;16.10;;
38399;SDS011;24180;42.676;23.320;2023-05-17T01:30:50;20.53;;;16.00;;
38399;SDS011;24180;42.676;23.320;2023-05-17T01:33:18;22.37;;;17.70;;
38399;SDS011;24180;42.676;23.320;2023-05-17T01:35:45;25.20;;;17.10;;
38399;SDS011;24180;42.676;23.320;2023-05-17T01:38:10;20.03;;;16.47;;
38399;SDS011;24180;42.676;23.320;2023-05-17T01:40:38;20.67;;;14.10;;
38399;SDS011;24180;42.676;23.320;2023-05-17T01:43:16;21.50;;;15.90;;
38399;SDS011;24180;42.676;23.320;2023-05-17T01:45:52;23.40;;;16.37;;
38399;SDS011;24180;42.676;23.320;2023-05-17T01:48:27;20.97;;;15.97;;
38399;SDS011;24180;42.676;23.320;2023-05-17T01:50:58;20.90;;;14.80;;
38399;SDS011;24180;42.676;23.320;2023-05-17T01:53:29;20.90;;;15.60;;
38399;SDS011;24180;42.676;23.320;2023-05-17T01:56:00;16.87;;;14.57;;
38399;SDS011;24180;42.676;23.320;2023-05-17T01:58:44;17.90;;;13.97;;
38399;SDS011;24180;42.676;23.320;2023-05-17T02:01:10;22.53;;;14.07;;
38399;SDS011;24180;42.676;23.320;2023-05-17T02:03:40;20.53;;;14.70;;
38399;SDS011;24180;42.676;23.320;2023-05-17T02:06:06;20.67;;;14.67;;
38399;SDS011;24180;42.676;23.320;2023-05-17T02:08:32;18.40;;;15.03;;
38399;SDS011;24180;42.676;23.320;2023-05-17T02:10:57;20.90;;;15.07;;
38399;SDS011;24180;42.676;23.320;2023-05-17T02:13:23;21.07;;;14.77;;
38399;SDS011;24180;42.676;23.320;2023-05-17T02:15:48;18.77;;;14.27;;
38399;SDS011;24180;42.676;23.320;2023-05-17T02:18:13;19.97;;;15.43;;
38399;SDS011;24180;42.676;23.320;2023-05-17T02:20:39;19.73;;;15.27;;
38399;SDS011;24180;42.676;23.320;2023-05-17T02:23:05;17.83;;;14.57;;
38399;SDS011;24180;42.676;23.320;2023-05-17T02:25:30;22.40;;;15.47;;
38399;SDS011;24180;42.676;23.320;2023-05-17T02:27:56;18.90;;;14.00;;
38399;SDS011;24180;42.676;23.320;2023-05-17T02:30:21;23.00;;;13.10;;
38399;SDS011;24180;42.676;23.320;2023-05-17T02:32:47;18.93;;;13.43;;
38399;SDS011;24180;42.676;23.320;2023-05-17T02:35:12;22.17;;;13.30;;
38399;SDS011;24180;42.676;23.320;2023-05-17T02:37:38;18.33;;;13.17;;
38399;SDS011;24180;42.676;23.320;2023-05-17T02:40:05;17.60;;;13.43;;
38399;SDS011;24180;42.676;23.320;2023-05-17T02:42:34;17.03;;;12.50;;
38399;SDS011;24180;42.676;23.320;2023-05-17T02:44:59;19.43;;;12.73;;
38399;SDS011;24180;42.676;23.320;2023-05-17T02:47:25;14.13;;;12.60;;
38399;SDS011;24180;42.676;23.320;2023-05-17T02:49:50;20.10;;;13.23;;
38399;SDS011;24180;42.676;23.320;2023-05-17T02:52:16;21.20;;;13.73;;
38399;SDS011;24180;42.676;23.320;2023-05-17T02:54:41;16.10;;;14.40;;
38399;SDS011;24180;42.676;23.320;2023-05-17T02:57:09;20.17;;;12.53;;
38399;SDS011;24180;42.676;23.320;2023-05-17T02:59:35;21.83;;;13.80;;
38399;SDS011;24180;42.676;23.320;2023-05-17T03:02:01;22.53;;;14.47;;
38399;SDS011;24180;42.676;23.320;2023-05-17T03:04:26;16.40;;;13.37;;
38399;SDS011;24180;42.676;23.320;2023-05-17T03:06:52;17.40;;;13.67;;
38399;SDS011;24180;42.676;23.320;2023-05-17T03:09:17;18.70;;;14.87;;
38399;SDS011;24180;42.676;23.320;2023-05-17T03:11:43;18.40;;;15.33;;
38399;SDS011;24180;42.676;23.320;2023-05-17T03:14:09;23.40;;;15.57;;
38399;SDS011;24180;42.676;23.320;2023-05-17T03:16:34;23.07;;;16.33;;
38399;SDS011;24180;42.676;23.320;2023-05-17T03:19:00;20.63;;;15.20;;
38399;SDS011;24180;42.676;23.320;2023-05-17T03:21:25;22.10;;;15.17;;
38399;SDS011;24180;42.676;23.320;2023-05-17T03:23:50;19.07;;;15.40;;
38399;SDS011;24180;42.676;23.320;2023-05-17T03:26:16;19.37;;;15.73;;
38399;SDS011;24180;42.676;23.320;2023-05-17T03:28:43;22.53;;;15.93;;
38399;SDS011;24180;42.676;23.320;2023-05-17T03:31:09;18.30;;;15.20;;
38399;SDS011;24180;42.676;23.320;2023-05-17T03:33:35;19.37;;;16.10;;
38399;SDS011;24180;42.676;23.320;2023-05-17T03:36:00;18.30;;;15.97;;
38399;SDS011;24180;42.676;23.320;2023-05-17T03:38:26;23.20;;;16.67;;
38399;SDS011;24180;42.676;23.320;2023-05-17T03:40:51;24.07;;;17.40;;
38399;SDS011;24180;42.676;23.320;2023-05-17T03:43:17;23.87;;;18.33;;
38399;SDS011;24180;42.676;23.320;2023-05-17T03:45:42;27.97;;;18.20;;
38399;SDS011;24180;42.676;23.320;2023-05-17T03:48:08;29.13;;;18.60;;
38399;SDS011;24180;42.676;23.320;2023-05-17T03:50:34;23.93;;;18.33;;
38399;SDS011;24180;42.676;23.320;2023-05-17T03:52:59;27.23;;;18.47;;
38399;SDS011;24180;42.676;23.320;2023-05-17T03:55:25;25.03;;;18.07;;
38399;SDS011;24180;42.676;23.320;2023-05-17T03:57:50;24.30;;;18.23;;
38399;SDS011;24180;42.676;23.320;2023-05-17T04:00:16;22.30;;;17.03;;
38399;SDS011;24180;42.676;23.320;2023-05-17T04:02:46;24.07;;;17.27;;
38399;SDS011;24180;42.676;23.320;2023-05-17T04:05:15;23.53;;;17.80;;
38399;SDS011;24180;42.676;23.320;2023-05-17T04:07:41;22.33;;;18.57;;
38399;SDS011;24180;42.676;23.320;2023-05-17T04:10:06;28.90;;;19.33;;
38399;SDS011;24180;42.676;23.320;2023-05-17T04:12:32;26.50;;;18.90;;
38399;SDS011;24180;42.676;23.320;2023-05-17T04:14:57;26.57;;;18.70;;
38399;SDS011;24180;42.676;23.320;2023-05-17T04:17:23;29.80;;;18.70;;
38399;SDS011;24180;42.676;23.320;2023-05-17T04:19:48;27.03;;;18.87;;
38399;SDS011;24180;42.676;23.320;2023-05-17T04:22:14;24.40;;;19.13;;
38399;SDS011;24180;42.676;23.320;2023-05-17T04:24:39;32.33;;;20.47;;
38399;SDS011;24180;42.676;23.320;2023-05-17T04:27:05;22.97;;;19.87;;
38399;SDS011;24180;42.676;23.320;2023-05-17T04:29:31;26.23;;;19.77;;
38399;SDS011;24180;42.676;23.320;2023-05-17T04:31:56;24.83;;;19.73;;
38399;SDS011;24180;42.676;23.320;2023-05-17T04:34:23;27.53;;;20.00;;
38399;SDS011;24180;42.676;23.320;2023-05-17T04:36:49;24.13;;;19.50;;
38399;SDS011;24180;42.676;23.320;2023-05-17T04:39:14;25.77;;;20.83;;
38399;SDS011;24180;42.676;23.320;2023-05-17T04:41:41;23.70;;;19.97;;
38399;SDS011;24180;42.676;23.320;2023-05-17T04:44:06;25.30;;;20.13;;
38399;SDS011;24180;42.676;23.320;2023-05-17T04:46:32;27.83;;;19.67;;
38399;SDS011;24180;42.676;23.320;2023-05-17T04:48:57;28.77;;;20.80;;
38399;SDS011;24180;42.676;23.320;2023-05-17T04:51:24;27.47;;;20.17;;
38399;SDS011;24180;42.676;23.320;2023-05-17T04:53:51;27.23;;;20.77;;
38399;SDS011;24180;42.676;23.320;2023-05-17T04:56:16;22.63;;;20.00;;
38399;SDS011;24180;42.676;23.320;2023-05-17T04:58:42;21.63;;;19.30;;
38399;SDS011;24180;42.676;23.320;2023-05-17T05:01:08;22.60;;;19.23;;
38399;SDS011;24180;42.676;23.320;2023-05-17T05:03:33;27.33;;;21.13;;
38399;SDS011;24180;42.676;23.320;2023-05-17T05:05:59;25.63;;;20.33;;
38399;SDS011;24180;42.676;23.320;2023-05-17T05:08:24;27.03;;;18.67;;
38399;SDS011;24180;42.676;23.320;2023-05-17T05:10:49;26.17;;;19.50;;
38399;SDS011;24180;42.676;23.320;2023-05-17T05:13:15;25.10;;;19.03;;
38399;SDS011;24180;42.676;23.320;2023-05-17T05:15:41;26.60;;;19.20;;
38399;SDS011;24180;42.676;23.320;2023-05-17T05:18:06;25.50;;;19.00;;
38399;SDS011;24180;42.676;23.320;2023-05-17T05:20:32;22.50;;;18.90;;
38399;SDS011;24180;42.676;23.320;2023-05-17T05:22:57;37.87;;;20.30;;
38399;SDS011;24180;42.676;23.320;2023-05-17T05:25:24;24.53;;;19.33;;
38399;SDS011;24180;42.676;23.320;2023-05-17T05:27:51;26.93;;;22.90;;
38399;SDS011;24180;42.676;23.320;2023-05-17T05:30:16;23.37;;;20.30;;
38399;SDS011;24180;42.676;23.320;2023-05-17T05:32:46;24.33;;;19.10;;
38399;SDS011;24180;42.676;23.320;2023-05-17T05:35:13;27.67;;;18.57;;
38399;SDS011;24180;42.676;23.320;2023-05-17T05:37:38;26.30;;;19.30;;
38399;SDS011;24180;42.676;23.320;2023-05-17T05:40:04;24.03;;;18.57;;
38399;SDS011;24180;42.676;23.320;2023-05-17T05:42:30;27.37;;;19.57;;
38399;SDS011;24180;42.676;23.320;2023-05-17T05:44:55;22.00;;;18.37;;
38399;SDS011;24180;42.676;23.320;2023-05-17T05:47:21;25.43;;;18.50;;
38399;SDS011;24180;42.676;23.320;2023-05-17T05:49:46;28.93;;;19.57;;
38399;SDS011;24180;42.676;23.320;2023-05-17T05:52:12;29.20;;;18.07;;
38399;SDS011;24180;42.676;23.320;2023-05-17T05:54:37;19.43;;;16.20;;
38399;SDS011;24180;42.676;23.320;2023-05-17T05:57:02;26.23;;;18.23;;
38399;SDS011;24180;42.676;23.320;2023-05-17T05:59:28;26.80;;;19.07;;
38399;SDS011;24180;42.676;23.320;2023-05-17T06:01:53;25.30;;;16.67;;
38399;SDS011;24180;42.676;23.320;2023-05-17T06:04:19;23.07;;;19.03;;
38399;SDS011;24180;42.676;23.320;2023-05-17T06:06:44;21.70;;;17.40;;
38399;SDS011;24180;42.676;23.320;2023-05-17T06:09:10;20.50;;;17.37;;
38399;SDS011;24180;42.676;23.320;2023-05-17T06:11:36;22.10;;;17.63;;
38399;SDS011;24180;42.676;23.320;2023-05-17T06:14:02;21.93;;;16.33;;
38399;SDS011;24180;42.676;23.320;2023-05-17T06:16:28;25.20;;;17.40;;
38399;SDS011;24180;42.676;23.320;2023-05-17T06:18:53;19.60;;;17.40;;
38399;SDS011;24180;42.676;23.320;2023-05-17T06:21:18;22.80;;;17.83;;
38399;SDS011;24180;42.676;23.320;2023-05-17T06:23:44;21.43;;;18.37;;
38399;SDS011;24180;42.676;23.320;2023-05-17T06:26:10;24.77;;;16.43;;
38399;SDS011;24180;42.676;23.320;2023-05-17T06:28:36;31.90;;;18.93;;
38399;SDS011;24180;42.676;23.320;2023-05-17T06:31:01;20.30;;;14.97;;
38399;SDS011;24180;42.676;23.320;2023-05-17T06:33:27;21.93;;;15.73;;
38399;SDS011;24180;42.676;23.320;2023-05-17T06:35:53;36.23;;;16.90;;
38399;SDS011;24180;42.676;23.320;2023-05-17T06:38:19;45.37;;;19.50;;
38399;SDS011;24180;42.676;23.320;2023-05-17T06:40:44;16.37;;;13.30;;
38399;SDS011;24180;42.676;23.320;2023-05-17T06:43:10;26.63;;;14.03;;
38399;SDS011;24180;42.676;23.320;2023-05-17T06:45:35;15.07;;;12.00;;
38399;SDS011;24180;42.676;23.320;2023-05-17T06:48:00;18.10;;;12.37;;
38399;SDS011;24180;42.676;23.320;2023-05-17T06:50:26;16.53;;;12.17;;
38399;SDS011;24180;42.676;23.320;2023-05-17T06:52:52;19.33;;;13.17;;
38399;SDS011;24180;42.676;23.320;2023-05-17T06:55:18;24.23;;;14.23;;
38399;SDS011;24180;42.676;23.320;2023-05-17T06:57:43;15.67;;;13.97;;
38399;SDS011;24180;42.676;23.320;2023-05-17T07:00:09;23.03;;;14.80;;
38399;SDS011;24180;42.676;23.320;2023-05-17T07:02:35;16.77;;;14.10;;
38399;SDS011;24180;42.676;23.320;2023-05-17T07:05:02;26.43;;;16.67;;
38399;SDS011;24180;42.676;23.320;2023-05-17T07:07:30;20.73;;;15.37;;
38399;SDS011;24180;42.676;23.320;2023-05-17T07:09:55;17.30;;;14.83;;
38399;SDS011;24180;42.676;23.320;2023-05-17T07:12:21;15.37;;;13.77;;
38399;SDS011;24180;42.676;23.320;2023-05-17T07:14:46;16.00;;;14.40;;
38399;SDS011;24180;42.676;23.320;2023-05-17T07:17:12;19.20;;;13.27;;
38399;SDS011;24180;42.676;23.320;2023-05-17T07:19:37;19.63;;;13.83;;
38399;SDS011;24180;42.676;23.320;2023-05-17T07:22:02;14.00;;;12.50;;
38399;SDS011;24180;42.676;23.320;2023-05-17T07:24:28;14.23;;;12.23;;
38399;SDS011;24180;42.676;23.320;2023-05-17T07:26:54;19.97;;;13.17;;
38399;SDS011;24180;42.676;23.320;2023-05-17T07:29:19;16.67;;;13.30;;
38399;SDS011;24180;42.676;23.320;2023-05-17T07:31:44;14.17;;;12.77;;
38399;SDS011;24180;42.676;23.320;2023-05-17T07:34:10;19.43;;;13.90;;
38399;SDS011;24180;42.676;23.320;2023-05-17T07:36:37;18.37;;;13.50;;
38399;SDS011;24180;42.676;23.320;2023-05-17T07:39:02;22.10;;;14.20;;
38399;SDS011;24180;42.676;23.320;2023-05-17T07:41:29;22.83;;;13.20;;
38399;SDS011;24180;42.676;23.320;2023-05-17T07:43:55;18.03;;;13.40;;
38399;SDS011;24180;42.676;23.320;2023-05-17T07:46:21;19.60;;;14.90;;
38399;SDS011;24180;42.676;23.320;2023-05-17T07:48:46;16.73;;;15.07;;
38399;SDS011;24180;42.676;23.320;2023-05-17T07:51:12;14.63;;;12.53;;
38399;SDS011;24180;42.676;23.320;2023-05-17T07:53:37;19.10;;;12.70;;
38399;SDS011;24180;42.676;23.320;2023-05-17T07:56:03;21.80;;;14.53;;
38399;SDS011;24180;42.676;23.320;2023-05-17T07:58:28;21.30;;;13.77;;
38399;SDS011;24180;42.676;23.320;2023-05-17T08:00:54;16.10;;;12.23;;
38399;SDS011;24180;42.676;23.320;2023-05-17T08:03:20;21.27;;;13.50;;
38399;SDS011;24180;42.676;23.320;2023-05-17T08:05:45;21.50;;;13.93;;
38399;SDS011;24180;42.676;23.320;2023-05-17T08:08:11;17.27;;;14.07;;
38399;SDS011;24180;42.676;23.320;2023-05-17T08:10:36;18.50;;;12.67;;
38399;SDS011;24180;42.676;23.320;2023-05-17T08:13:02;20.63;;;13.13;;
38399;SDS011;24180;42.676;23.320;2023-05-17T08:15:28;15.13;;;12.40;;
38399;SDS011;24180;42.676;23.320;2023-05-17T08:17:54;20.83;;;12.90;;
38399;SDS011;24180;42.676;23.320;2023-05-17T08:20:20;17.17;;;12.30;;
38399;SDS011;24180;42.676;23.320;2023-05-17T08:22:46;15.87;;;12.17;;
38399;SDS011;24180;42.676;23.320;2023-05-17T08:25:11;14.80;;;12.60;;
38399;SDS011;24180;42.676;23.320;2023-05-17T08:27:36;15.57;;;13.50;;
38399;SDS011;24180;42.676;23.320;2023-05-17T08:30:02;23.17;;;15.03;;
38399;SDS011;24180;42.676;23.320;2023-05-17T08:32:29;29.67;;;15.63;;
38399;SDS011;24180;42.676;23.320;2023-05-17T08:34:55;17.20;;;13.90;;
38399;SDS011;24180;42.676;23.320;2023-05-17T08:37:21;24.45;;;14.80;;
38399;SDS011;24180;42.676;23.320;2023-05-17T08:39:47;27.83;;;14.80;;
38399;SDS011;24180;42.676;23.320;2023-05-17T08:42:13;91.50;;;21.17;;
38399;SDS011;24180;42.676;23.320;2023-05-17T08:44:53;20.20;;;15.73;;
38399;SDS011;24180;42.676;23.320;2023-05-17T08:47:22;20.33;;;16.02;;
38399;SDS011;24180;42.676;23.320;2023-05-17T08:49:50;21.60;;;15.52;;
38399;SDS011;24180;42.676;23.320;2023-05-17T08:52:19;24.27;;;14.77;;
38399;SDS011;24180;42.676;23.320;2023-05-17T08:54:46;22.10;;;14.18;;
38399;SDS011;24180;42.676;23.320;2023-05-17T08:57:12;21.10;;;17.13;;
38399;SDS011;24180;42.676;23.320;2023-05-17T08:59:40;19.63;;;13.73;;
38399;SDS011;24180;42.676;23.320;2023-05-17T09:02:06;23.27;;;20.48;;
38399;SDS011;24180;42.676;23.320;2023-05-17T09:04:32;23.50;;;20.17;;
38399;SDS011;24180;42.676;23.320;2023-05-17T09:06:57;24.13;;;16.90;;
38399;SDS011;24180;42.676;23.320;2023-05-17T09:09:23;21.07;;;13.00;;
38399;SDS011;24180;42.676;23.320;2023-05-17T09:11:49;21.27;;;15.80;;
38399;SDS011;24180;42.676;23.320;2023-05-17T09:14:15;21.43;;;17.73;;
38399;SDS011;24180;42.676;23.320;2023-05-17T09:16:43;18.50;;;12.93;;
38399;SDS011;24180;42.676;23.320;2023-05-17T09:19:12;16.63;;;14.87;;
38399;SDS011;24180;42.676;23.320;2023-05-17T09:21:43;20.33;;;16.23;;
38399;SDS011;24180;42.676;23.320;2023-05-17T09:24:09;18.88;;;15.70;;
38399;SDS011;24180;42.676;23.320;2023-05-17T09:26:39;17.63;;;15.77;;
38399;SDS011;24180;42.676;23.320;2023-05-17T09:29:12;29.23;;;19.10;;
38399;SDS011;24180;42.676;23.320;2023-05-17T09:31:40;18.80;;;15.07;;
38399;SDS011;24180;42.676;23.320;2023-05-17T09:34:06;16.23;;;12.48;;
38399;SDS011;24180;42.676;23.320;2023-05-17T09:36:33;15.50;;;12.80;;
38399;SDS011;24180;42.676;23.320;2023-05-17T09:39:01;21.52;;;13.57;;
38399;SDS011;24180;42.676;23.320;2023-05-17T09:41:55;37.17;;;16.45;;
38399;SDS011;24180;42.676;23.320;2023-05-17T09:44:20;15.40;;;13.48;;
38399;SDS011;24180;42.676;23.320;2023-05-17T09:46:46;17.58;;;12.35;;
38399;SDS011;24180;42.676;23.320;2023-05-17T09:49:12;20.15;;;12.70;;
38399;SDS011;24180;42.676;23.320;2023-05-17T09:51:39;16.83;;;11.80;;
38399;SDS011;24180;42.676;23.320;2023-05-17T09:54:07;18.63;;;12.93;;
38399;SDS011;24180;42.676;23.320;2023-05-17T09:56:34;17.27;;;12.75;;
38399;SDS011;24180;42.676;23.320;2023-05-17T09:59:00;15.32;;;11.82;;
38399;SDS011;24180;42.676;23.320;2023-05-17T10:01:26;15.32;;;12.55;;
38399;SDS011;24180;42.676;23.320;2023-05-17T10:03:53;20.40;;;13.90;;
38399;SDS011;24180;42.676;23.320;2023-05-17T10:06:20;18.08;;;15.77;;
38399;SDS011;24180;42.676;23.320;2023-05-17T10:08:50;63.20;;;58.42;;
38399;SDS011;24180;42.676;23.320;2023-05-17T10:11:21;15.75;;;11.45;;
38399;SDS011;24180;42.676;23.320;2023-05-17T10:14:12;42.88;;;39.72;;
38399;SDS011;24180;42.676;23.320;2023-05-17T10:16:51;33.40;;;30.90;;
38399;SDS011;24180;42.676;23.320;2023-05-17T10:19:17;38.42;;;34.40;;
38399;SDS011;24180;42.676;23.320;2023-05-17T10:21:46;27.13;;;24.95;;
38399;SDS011;24180;42.676;23.320;2023-05-17T10:24:12;18.80;;;16.10;;
38399;SDS011;24180;42.676;23.320;2023-05-17T10:26:38;16.00;;;11.25;;
38399;SDS011;24180;42.676;23.320;2023-05-17T10:29:04;18.70;;;11.00;;
38399;SDS011;24180;42.676;23.320;2023-05-17T10:31:31;19.58;;;10.73;;
38399;SDS011;24180;42.676;23.320;2023-05-17T10:33:58;12.87;;;9.70;;
38399;SDS011;24180;42.676;23.320;2023-05-17T10:36:25;16.07;;;9.53;;
38399;SDS011;24180;42.676;23.320;2023-05-17T10:38:51;21.80;;;11.50;;
38399;SDS011;24180;42.676;23.320;2023-05-17T10:41:18;13.73;;;11.93;;
38399;SDS011;24180;42.676;23.320;2023-05-17T10:43:48;19.50;;;12.10;;
38399;SDS011;24180;42.676;23.320;2023-05-17T10:46:14;19.67;;;12.13;;
38399;SDS011;24180;42.676;23.320;2023-05-17T10:48:42;20.33;;;12.33;;
38399;SDS011;24180;42.676;23.320;2023-05-17T10:51:09;18.97;;;11.17;;
38399;SDS011;24180;42.676;23.320;2023-05-17T10:56:38;20.77;;;13.50;;
38399;SDS011;24180;42.676;23.320;2023-05-17T10:59:19;14.87;;;12.23;;
38399;SDS011;24180;42.676;23.320;2023-05-17T11:04:26;23.00;;;11.98;;
38399;SDS011;24180;42.676;23.320;2023-05-17T11:09:51;20.10;;;11.43;;
38399;SDS011;24180;42.676;23.320;2023-05-17T11:15:16;20.27;;;13.17;;
38399;SDS011;24180;42.676;23.320;2023-05-17T11:20:07;14.20;;;11.70;;
38399;SDS011;24180;42.676;23.320;2023-05-17T11:22:40;25.37;;;13.80;;
38399;SDS011;24180;42.676;23.320;2023-05-17T11:25:12;15.40;;;11.30;;
38399;SDS011;24180;42.676;23.320;2023-05-17T11:27:48;17.23;;;12.20;;
38399;SDS011;24180;42.676;23.320;2023-05-17T11:30:28;24.70;;;12.75;;
38399;SDS011;24180;42.676;23.320;2023-05-17T11:33:05;16.52;;;13.02;;
38399;SDS011;24180;42.676;23.320;2023-05-17T11:35:32;24.48;;;14.23;;
38399;SDS011;24180;42.676;23.320;2023-05-17T11:38:21;20.80;;;13.77;;
38399;SDS011;24180;42.676;23.320;2023-05-17T11:40:51;32.65;;;14.85;;
38399;SDS011;24180;42.676;23.320;2023-05-17T11:43:18;18.73;;;12.93;;
38399;SDS011;24180;42.676;23.320;2023-05-17T11:45:51;25.53;;;14.33;;
38399;SDS011;24180;42.676;23.320;2023-05-17T11:48:18;33.83;;;13.17;;
38399;SDS011;24180;42.676;23.320;2023-05-17T11:50:46;22.85;;;13.13;;
38399;SDS011;24180;42.676;23.320;2023-05-17T11:53:13;19.58;;;12.23;;
38399;SDS011;24180;42.676;23.320;2023-05-17T11:55:40;14.73;;;11.03;;
38399;SDS011;24180;42.676;23.320;2023-05-17T11:58:08;23.87;;;11.87;;
38399;SDS011;24180;42.676;23.320;2023-05-17T12:00:35;18.87;;;11.07;;
38399;SDS011;24180;42.676;23.320;2023-05-17T12:05:44;17.23;;;14.17;;
38399;SDS011;24180;42.676;23.320;2023-05-17T12:08:10;14.73;;;13.20;;
38399;SDS011;24180;42.676;23.320;2023-05-17T12:10:35;17.67;;;13.23;;
38399;SDS011;24180;42.676;23.320;2023-05-17T12:13:01;17.33;;;12.53;;
38399;SDS011;24180;42.676;23.320;2023-05-17T12:15:27;19.57;;;11.80;;
38399;SDS011;24180;42.676;23.320;2023-05-17T12:17:54;21.63;;;13.60;;
38399;SDS011;24180;42.676;23.320;2023-05-17T12:20:19;18.50;;;14.63;;
38399;SDS011;24180;42.676;23.320;2023-05-17T12:22:54;20.23;;;13.03;;
38399;SDS011;24180;42.676;23.320;2023-05-17T12:25:21;14.20;;;12.63;;
38399;SDS011;24180;42.676;23.320;2023-05-17T12:27:49;18.70;;;13.93;;
38399;SDS011;24180;42.676;23.320;2023-05-17T12:30:16;20.20;;;10.87;;
38399;SDS011;24180;42.676;23.320;2023-05-17T12:32:41;16.47;;;11.10;;
38399;SDS011;24180;42.676;23.320;2023-05-17T12:35:08;25.63;;;11.30;;
38399;SDS011;24180;42.676;23.320;2023-05-17T12:37:34;14.73;;;10.67;;
38399;SDS011;24180;42.676;23.320;2023-05-17T12:40:00;18.13;;;11.27;;
38399;SDS011;24180;42.676;23.320;2023-05-17T12:42:29;15.63;;;11.93;;
38399;SDS011;24180;42.676;23.320;2023-05-17T12:44:55;14.63;;;12.53;;
38399;SDS011;24180;42.676;23.320;2023-05-17T12:47:24;19.50;;;11.33;;
38399;SDS011;24180;42.676;23.320;2023-05-17T12:49:54;36.53;;;15.70;;
38399;SDS011;24180;42.676;23.320;2023-05-17T12:52:20;17.40;;;12.17;;
38399;SDS011;24180;42.676;23.320;2023-05-17T12:54:45;28.17;;;17.00;;
38399;SDS011;24180;42.676;23.320;2023-05-17T12:57:14;18.50;;;14.30;;
38399;SDS011;24180;42.676;23.320;2023-05-17T12:59:49;16.33;;;14.77;;
38399;SDS011;24180;42.676;23.320;2023-05-17T13:02:17;18.17;;;15.67;;
38399;SDS011;24180;42.676;23.320;2023-05-17T13:04:43;34.33;;;31.40;;
38399;SDS011;24180;42.676;23.320;2023-05-17T13:07:10;23.20;;;15.57;;
38399;SDS011;24180;42.676;23.320;2023-05-17T13:09:45;19.97;;;13.50;;
38399;SDS011;24180;42.676;23.320;2023-05-17T13:12:16;17.90;;;11.20;;
38399;SDS011;24180;42.676;23.320;2023-05-17T13:14:49;17.73;;;11.53;;
38399;SDS011;24180;42.676;23.320;2023-05-17T13:17:25;16.42;;;10.80;;
38399;SDS011;24180;42.676;23.320;2023-05-17T13:19:58;17.60;;;11.23;;
38399;SDS011;24180;42.676;23.320;2023-05-17T13:22:23;18.27;;;10.27;;
38399;SDS011;24180;42.676;23.320;2023-05-17T13:24:49;30.95;;;11.05;;
38399;SDS011;24180;42.676;23.320;2023-05-17T13:27:15;15.30;;;9.95;;
38399;SDS011;24180;42.676;23.320;2023-05-17T13:29:41;18.60;;;12.03;;
38399;SDS011;24180;42.676;23.320;2023-05-17T13:32:08;17.10;;;12.03;;
38399;SDS011;24180;42.676;23.320;2023-05-17T13:34:37;19.07;;;11.97;;
38399;SDS011;24180;42.676;23.320;2023-05-17T13:37:04;13.07;;;10.47;;
38399;SDS011;24180;42.676;23.320;2023-05-17T13:39:30;17.27;;;11.57;;
38399;SDS011;24180;42.676;23.320;2023-05-17T13:41:55;17.13;;;12.37;;
38399;SDS011;24180;42.676;23.320;2023-05-17T13:44:21;20.23;;;15.53;;
38399;SDS011;24180;42.676;23.320;2023-05-17T13:46:47;14.63;;;12.57;;
38399;SDS011;24180;42.676;23.320;2023-05-17T13:49:12;18.03;;;11.27;;
38399;SDS011;24180;42.676;23.320;2023-05-17T13:51:38;15.40;;;10.37;;
38399;SDS011;24180;42.676;23.320;2023-05-17T13:54:04;13.20;;;7.80;;
38399;SDS011;24180;42.676;23.320;2023-05-17T13:56:31;13.03;;;8.60;;
38399;SDS011;24180;42.676;23.320;2023-05-17T13:58:57;15.80;;;9.27;;
38399;SDS011;24180;42.676;23.320;2023-05-17T14:01:22;14.07;;;7.97;;
38399;SDS011;24180;42.676;23.320;2023-05-17T14:03:48;14.93;;;8.80;;
38399;SDS011;24180;42.676;23.320;2023-05-17T14:06:13;14.30;;;8.70;;
38399;SDS011;24180;42.676;23.320;2023-05-17T14:08:38;17.77;;;8.80;;
38399;SDS011;24180;42.676;23.320;2023-05-17T14:11:04;13.17;;;8.43;;
38399;SDS011;24180;42.676;23.320;2023-05-17T14:13:30;16.80;;;9.23;;
38399;SDS011;24180;42.676;23.320;2023-05-17T14:15:55;15.87;;;10.53;;
38399;SDS011;24180;42.676;23.320;2023-05-17T14:18:21;13.47;;;9.20;;
38399;SDS011;24180;42.676;23.320;2023-05-17T14:20:46;11.93;;;8.70;;
38399;SDS011;24180;42.676;23.320;2023-05-17T14:23:12;16.03;;;8.70;;
38399;SDS011;24180;42.676;23.320;2023-05-17T14:25:37;15.97;;;8.50;;
38399;SDS011;24180;42.676;23.320;2023-05-17T14:28:04;13.03;;;7.77;;
38399;SDS011;24180;42.676;23.320;2023-05-17T14:30:29;14.07;;;10.40;;
38399;SDS011;24180;42.676;23.320;2023-05-17T14:32:55;14.23;;;9.90;;